Norseman, Australia
Current Conditions -  °F | °C
As of 6:00 AM on Sunday 26 Oct 2014 (Local Time) from YPKG Reporting Station
Broken Clouds Broken Clouds  
Wind Chill: 61°   Ceiling: 2000
Heat Index: 61°   Visibility: 6mi
Dew Point: 50°   Wind: 9mph
Humidity: 68%   Direction: 200°SSW
Pressure: 30.09"   Gusts: NA
Location:  32.2°S, 121.78°E
Report Text: YPKG 252200Z 20008KT 9999 BKN020 16/10 Q1019
Loading
Personal Weather Stations






























Interactive Weather Map
Tropical Storm Tracking
New forecast layout! Learn more

10-Day Weather Forecast

Advertisements
Track Severe Weather on mobile